createdAt,value
2023-01-28T00:00:38.165Z,103155.03
2023-01-28T00:03:04.740Z,103151.59
2023-01-28T00:05:31.432Z,103151.75
2023-01-28T00:07:57.986Z,103146.53
2023-01-28T00:10:24.631Z,103151.75
2023-01-28T00:12:51.179Z,103161.19
2023-01-28T00:15:17.864Z,103157.91
2023-01-28T00:17:44.404Z,103159.53
2023-01-28T00:20:11.290Z,103155.28
2023-01-28T00:22:37.782Z,103156.94
2023-01-28T00:25:04.408Z,103159.41
2023-01-28T00:27:31.132Z,103161.06
2023-01-28T00:29:57.600Z,103156.69
2023-01-28T00:32:24.136Z,103156.69
2023-01-28T00:34:50.599Z,103158.59
2023-01-28T00:37:17.101Z,103165.72
2023-01-28T00:39:43.626Z,103166.53
2023-01-28T00:42:10.258Z,103158.84
2023-01-28T00:44:36.700Z,103152.00
2023-01-28T00:47:03.563Z,103148.44
2023-01-28T00:49:31.267Z,103154.47
2023-01-28T00:51:57.860Z,103157.19
2023-01-28T00:54:24.407Z,103158.97
2023-01-28T00:56:53.572Z,103162.41
2023-01-28T00:59:20.404Z,103159.81
2023-01-28T01:01:47.064Z,103155.56
2023-01-28T01:04:13.605Z,103154.72
2023-01-28T01:06:40.946Z,103150.47
2023-01-28T01:09:10.911Z,103148.81
2023-01-28T01:11:37.625Z,103143.63
2023-01-28T01:14:05.485Z,103140.19
2023-01-28T01:16:33.553Z,103150.59
2023-01-28T01:19:00.524Z,103150.72
2023-01-28T01:21:31.548Z,103141.28
2023-01-28T01:23:58.180Z,103147.31
2023-01-28T01:26:27.405Z,103140.44
2023-01-28T01:28:54.177Z,103150.03
2023-01-28T01:31:22.154Z,103156.06
2023-01-28T01:33:51.281Z,103146.59
2023-01-28T01:36:20.199Z,103155.38
2023-01-28T01:38:46.990Z,103158.78
2023-01-28T01:41:39.799Z,103160.56
2023-01-28T01:44:07.466Z,103158.94
2023-01-28T01:46:43.505Z,103157.97
2023-01-28T01:49:23.538Z,103161.41
2023-01-28T01:51:55.441Z,103165.66
2023-01-28T01:54:26.043Z,103173.59
2023-01-28T01:56:53.412Z,103168.50
2023-01-28T01:59:25.762Z,103174.41
2023-01-28T02:01:54.078Z,103168.38
2023-01-28T02:04:29.658Z,103175.38
2023-01-28T02:06:58.593Z,103172.91
2023-01-28T02:09:30.485Z,103179.06
2023-01-28T02:12:01.559Z,103172.06
2023-01-28T02:14:33.979Z,103175.63
2023-01-28T02:17:01.956Z,103178.09
2023-01-28T02:19:39.634Z,103180.00
2023-01-28T02:22:36.609Z,103165.34
2023-01-28T02:25:23.183Z,103167.94
2023-01-28T02:28:08.241Z,103175.75
2023-01-28T02:31:01.262Z,103187.00
2023-01-28T02:33:36.237Z,103176.56
2023-01-28T02:36:17.809Z,103179.34
2023-01-28T02:38:50.935Z,103171.53
2023-01-28T02:41:34.986Z,103186.56
2023-01-28T02:44:03.271Z,103177.94
2023-01-28T02:46:48.368Z,103186.69
2023-01-28T02:49:23.181Z,103179.84
2023-01-28T02:51:52.570Z,103179.72
2023-01-28T02:54:36.794Z,103186.56
2023-01-28T02:57:06.141Z,103191.78
2023-01-28T02:59:44.687Z,103183.16
2023-01-28T03:02:26.375Z,103183.16
2023-01-28T03:05:06.026Z,103159.84
2023-01-28T03:07:35.919Z,103154.78
2023-01-28T03:10:06.169Z,103165.19
2023-01-28T03:12:53.689Z,103166.13
2023-01-28T03:15:43.017Z,103173.38
2023-01-28T03:18:49.250Z,103178.69
2023-01-28T03:21:46.296Z,103177.06
2023-01-28T03:24:33.309Z,103175.53
2023-01-28T03:27:18.457Z,103170.31
2023-01-28T03:30:04.515Z,103171.41
2023-01-28T03:32:51.237Z,103178.38
2023-01-28T03:35:38.873Z,103179.19
2023-01-28T03:38:18.275Z,103175.91
2023-01-28T03:40:52.730Z,103172.59
2023-01-28T03:43:19.256Z,103175.19
2023-01-28T03:45:46.316Z,103176.16
2023-01-28T03:48:15.310Z,103178.75
2023-01-28T03:50:41.921Z,103179.72
2023-01-28T03:53:16.934Z,103181.34
2023-01-28T03:55:44.418Z,103181.34
2023-01-28T03:58:12.348Z,103183.13
2023-01-28T04:00:42.022Z,103179.72
2023-01-28T04:03:17.417Z,103172.16
2023-01-28T04:05:59.041Z,103179.97
2023-01-28T04:08:25.873Z,103183.50
2023-01-28T04:10:52.474Z,103184.22
2023-01-28T04:13:19.185Z,103186.81
2023-01-28T04:15:46.503Z,103190.34
2023-01-28T04:18:13.092Z,103188.97
2023-01-28T04:20:40.228Z,103194.03
2023-01-28T04:23:10.667Z,103201.72
2023-01-28T04:25:37.257Z,103196.63
2023-01-28T04:28:03.902Z,103201.97
2023-01-28T04:30:30.575Z,103209.91
2023-01-28T04:32:57.053Z,103215.25
2023-01-28T04:35:23.635Z,103217.03
2023-01-28T04:37:50.075Z,103214.56
2023-01-28T04:40:16.803Z,103224.84
2023-01-28T04:42:43.424Z,103225.66
2023-01-28T04:45:10.448Z,103224.00
2023-01-28T04:47:36.872Z,103224.94
2023-01-28T04:50:03.534Z,103213.84
2023-01-28T04:52:30.069Z,103209.47
2023-01-28T04:54:56.645Z,103216.69
2023-01-28T04:57:23.207Z,103201.22
2023-01-28T04:59:49.711Z,103203.00
2023-01-28T05:02:16.202Z,103203.69
2023-01-28T05:04:42.772Z,103194.81
2023-01-28T05:07:09.307Z,103187.00
2023-01-28T05:09:35.789Z,103196.59
2023-01-28T05:12:03.267Z,103200.13
2023-01-28T05:14:29.756Z,103195.06
2023-01-28T05:16:56.253Z,103195.88
2023-01-28T05:19:22.808Z,103199.31
2023-01-28T05:21:49.335Z,103195.19
2023-01-28T05:24:16.161Z,103189.16
2023-01-28T05:26:42.828Z,103193.53
2023-01-28T05:29:09.396Z,103200.38
2023-01-28T05:31:35.904Z,103193.41
2023-01-28T05:34:02.467Z,103193.53
2023-01-28T05:36:28.995Z,103209.16
2023-01-28T05:38:55.588Z,103210.91
2023-01-28T05:41:22.147Z,103200.63
2023-01-28T05:43:48.653Z,103203.38
2023-01-28T05:46:15.207Z,103201.72
2023-01-28T05:48:41.696Z,103194.84
2023-01-28T05:51:08.190Z,103198.41
2023-01-28T05:53:34.892Z,103206.34
2023-01-28T05:56:01.403Z,103204.69
2023-01-28T05:58:30.957Z,103193.56
2023-01-28T06:00:57.739Z,103201.38
2023-01-28T06:03:24.429Z,103212.72
2023-01-28T06:05:51.111Z,103199.97
2023-01-28T06:08:17.568Z,103201.88
2023-01-28T06:10:44.075Z,103204.47
2023-01-28T06:13:10.739Z,103202.81
2023-01-28T06:15:37.425Z,103199.25
2023-01-28T06:18:04.189Z,103194.06
2023-01-28T06:20:30.731Z,103202.81
2023-01-28T06:22:57.238Z,103208.97
2023-01-28T06:25:23.801Z,103203.75
2023-01-28T06:27:50.359Z,103195.97
2023-01-28T06:30:17.365Z,103200.34
2023-01-28T06:32:44.667Z,103204.72
2023-01-28T06:35:11.686Z,103204.72
2023-01-28T06:37:39.595Z,103199.50
2023-01-28T06:40:06.722Z,103209.22
2023-01-28T06:42:33.232Z,103209.91
2023-01-28T06:44:59.694Z,103222.91
2023-01-28T06:47:26.201Z,103228.22
2023-01-28T06:49:52.681Z,103222.22
2023-01-28T06:52:19.207Z,103226.56
2023-01-28T06:54:45.652Z,103223.84
2023-01-28T06:57:12.189Z,103226.56
2023-01-28T06:59:38.832Z,103238.06
2023-01-28T07:02:05.399Z,103233.81
2023-01-28T07:04:32.127Z,103233.81
2023-01-28T07:06:58.636Z,103243.53
2023-01-28T07:09:25.151Z,103234.06
2023-01-28T07:11:51.669Z,103235.00
2023-01-28T07:14:18.111Z,103229.94
2023-01-28T07:16:44.549Z,103231.72
2023-01-28T07:19:11.069Z,103234.31
2023-01-28T07:21:37.635Z,103240.47
2023-01-28T07:24:05.333Z,103234.56
2023-01-28T07:26:32.400Z,103249.31
2023-01-28T07:28:58.869Z,103245.91
2023-01-28T07:31:25.511Z,103242.34
2023-01-28T07:33:52.092Z,103239.75
2023-01-28T07:36:18.539Z,103243.28
2023-01-28T07:38:45.023Z,103246.72
2023-01-28T07:41:11.574Z,103264.91
2023-01-28T07:43:38.092Z,103265.75
2023-01-28T07:46:04.734Z,103257.00
2023-01-28T07:48:31.517Z,103258.66
2023-01-28T07:51:01.709Z,103273.31
2023-01-28T07:53:28.132Z,103273.31
2023-01-28T07:56:01.572Z,103273.31
2023-01-28T07:58:28.563Z,103278.25
2023-01-28T08:01:01.688Z,103274.84
2023-01-28T08:03:28.675Z,103269.50
2023-01-28T08:05:56.728Z,103272.13
2023-01-28T08:08:24.289Z,103273.78
2023-01-28T08:10:51.222Z,103264.19
2023-01-28T08:13:18.481Z,103267.50
2023-01-28T08:15:45.619Z,103266.41
2023-01-28T08:18:14.383Z,103271.34
2023-01-28T08:20:43.582Z,103276.56
2023-01-28T08:23:12.843Z,103267.00
2023-01-28T08:25:40.145Z,103281.75
2023-01-28T08:28:07.506Z,103285.06
2023-01-28T08:30:34.689Z,103283.06
2023-01-28T08:33:01.865Z,103283.41
2023-01-28T08:35:28.986Z,103288.59
2023-01-28T08:37:56.008Z,103296.84
2023-01-28T08:40:22.672Z,103292.38
2023-01-28T08:42:50.576Z,103290.34
2023-01-28T08:45:18.360Z,103297.38
2023-01-28T08:48:01.206Z,103291.94
2023-01-28T08:50:32.720Z,103300.91
2023-01-28T08:53:02.407Z,103308.34
2023-01-28T08:55:29.678Z,103305.63
2023-01-28T08:57:58.460Z,103326.91
2023-01-28T09:00:25.377Z,103323.34
2023-01-28T09:02:53.223Z,103315.06
2023-01-28T09:05:20.925Z,103318.72
2023-01-28T09:07:47.947Z,103311.38
2023-01-28T09:10:16.476Z,103321.25
2023-01-28T09:12:44.030Z,103319.56
2023-01-28T09:15:11.384Z,103312.78
2023-01-28T09:17:37.978Z,103311.56
2023-01-28T09:20:05.631Z,103321.41
2023-01-28T09:22:32.900Z,103324.97
2023-01-28T09:24:59.329Z,103337.22
2023-01-28T09:27:25.977Z,103322.34
2023-01-28T09:29:52.520Z,103334.22
2023-01-28T09:32:19.069Z,103335.38
2023-01-28T09:34:45.561Z,103326.34
2023-01-28T09:37:12.165Z,103329.38
2023-01-28T09:39:38.733Z,103350.41
2023-01-28T09:42:24.118Z,103345.56
2023-01-28T09:45:01.541Z,103351.34
2023-01-28T09:47:34.058Z,103348.94
2023-01-28T09:50:05.222Z,103344.84
2023-01-28T09:52:36.380Z,103345.56
2023-01-28T09:55:16.481Z,103339.34
2023-01-28T09:57:48.291Z,103338.13
2023-01-28T10:00:18.439Z,103340.41
2023-01-28T10:03:06.794Z,103360.47
2023-01-28T10:05:46.407Z,103353.09
2023-01-28T10:08:27.751Z,103351.50
2023-01-28T10:11:17.760Z,103355.44
2023-01-28T10:14:03.034Z,103356.16
2023-01-28T10:16:42.478Z,103352.34
2023-01-28T10:19:41.134Z,103354.88
2023-01-28T10:22:19.068Z,103352.97
2023-01-28T10:24:50.504Z,103336.38
2023-01-28T10:27:23.363Z,103332.06
2023-01-28T10:29:51.560Z,103332.66
2023-01-28T10:32:29.160Z,103339.91
2023-01-28T10:34:59.751Z,103338.59
2023-01-28T10:37:27.038Z,103333.09
2023-01-28T10:39:58.162Z,103330.88
2023-01-28T10:42:31.659Z,103334.19
2023-01-28T10:45:16.939Z,103334.56
2023-01-28T10:47:53.449Z,103325.81
2023-01-28T10:50:27.031Z,103317.91
2023-01-28T10:53:05.594Z,103313.00
2023-01-28T10:56:01.117Z,103311.41
2023-01-28T10:58:31.098Z,103302.63
2023-01-28T11:01:01.378Z,103305.88
2023-01-28T11:03:30.752Z,103295.88
2023-01-28T11:05:58.957Z,103287.25
2023-01-28T11:08:27.871Z,103278.72
2023-01-28T11:10:56.912Z,103271.72
2023-01-28T11:13:29.305Z,103261.44
2023-01-28T11:16:05.534Z,103260.66
2023-01-28T11:18:38.523Z,103257.78
2023-01-28T11:21:15.992Z,103237.59
2023-01-28T11:23:59.394Z,103224.72
2023-01-28T11:26:29.866Z,103208.53
2023-01-28T11:28:56.502Z,103228.16
2023-01-28T11:31:24.467Z,103229.66
2023-01-28T11:33:59.319Z,103222.94
2023-01-28T11:36:31.120Z,103208.53
2023-01-28T11:39:16.522Z,103208.97
2023-01-28T11:41:43.246Z,103205.22
2023-01-28T11:44:17.831Z,103204.13
2023-01-28T11:47:03.018Z,103204.97
2023-01-28T11:49:48.302Z,103209.34
2023-01-28T11:52:55.220Z,103216.50
2023-01-28T11:55:45.947Z,103217.88
2023-01-28T11:58:34.286Z,103221.72
2023-01-28T12:01:06.925Z,103226.09
2023-01-28T12:03:52.015Z,103236.00
2023-01-28T12:06:50.845Z,103230.88
2023-01-28T12:09:45.882Z,103228.81
2023-01-28T12:12:21.196Z,103224.44
2023-01-28T12:15:13.183Z,103229.09
2023-01-28T12:18:00.946Z,103221.13
2023-01-28T12:20:35.200Z,103220.88
2023-01-28T12:23:07.784Z,103223.59
2023-01-28T12:25:43.747Z,103239.13
2023-01-28T12:28:36.382Z,103234.31
2023-01-28T12:31:03.416Z,103237.63
2023-01-28T12:33:48.730Z,103234.72
2023-01-28T12:36:41.549Z,103227.16
2023-01-28T12:39:27.517Z,103216.66
2023-01-28T12:42:18.291Z,103214.59
2023-01-28T12:44:51.229Z,103216.66
2023-01-28T12:47:26.525Z,103214.16
2023-01-28T12:49:58.407Z,103202.03
2023-01-28T12:52:55.399Z,103208.31
2023-01-28T12:55:38.613Z,103202.16
2023-01-28T12:58:12.352Z,103195.19
2023-01-28T13:00:45.371Z,103179.91
2023-01-28T13:03:33.547Z,103171.56
2023-01-28T13:06:06.127Z,103167.00
2023-01-28T13:08:32.878Z,103161.75
2023-01-28T13:11:03.200Z,103159.59
2023-01-28T13:13:33.631Z,103149.50
2023-01-28T13:16:01.109Z,103142.44
2023-01-28T13:18:46.925Z,103142.38
2023-01-28T13:21:23.950Z,103150.59
2023-01-28T13:24:14.601Z,103154.69
2023-01-28T13:26:41.054Z,103150.06
2023-01-28T13:29:32.395Z,103147.75
2023-01-28T13:32:01.986Z,103147.16
2023-01-28T13:34:36.382Z,103144.81
2023-01-28T13:37:29.108Z,103140.13
2023-01-28T13:40:26.926Z,103143.28
2023-01-28T13:43:06.573Z,103153.19
2023-01-28T13:45:34.149Z,103148.69
2023-01-28T13:48:29.974Z,103149.59
2023-01-28T13:50:57.450Z,103150.00
2023-01-28T13:53:28.816Z,103152.44
2023-01-28T13:55:59.171Z,103147.28
2023-01-28T13:58:34.416Z,103137.81
2023-01-28T14:01:28.511Z,103146.06
2023-01-28T14:04:10.172Z,103144.44
2023-01-28T14:06:51.918Z,103151.31
2023-01-28T14:09:40.120Z,103161.91
2023-01-28T14:12:34.585Z,103177.31
2023-01-28T14:15:19.936Z,103180.06
2023-01-28T14:17:53.633Z,103179.38
2023-01-28T14:20:22.355Z,103175.25
2023-01-28T14:22:50.666Z,103167.56
2023-01-28T14:25:29.365Z,103164.81
2023-01-28T14:27:58.013Z,103152.72
2023-01-28T14:30:34.335Z,103157.66
2023-01-28T14:33:01.961Z,103155.84
2023-01-28T14:35:32.769Z,103149.13
2023-01-28T14:38:07.155Z,103151.75
2023-01-28T14:40:35.637Z,103154.75
2023-01-28T14:43:06.362Z,103158.72
2023-01-28T14:45:51.424Z,103158.84
2023-01-28T14:48:40.784Z,103155.81
2023-01-28T14:51:19.498Z,103151.84
2023-01-28T14:53:58.983Z,103162.63
2023-01-28T14:56:43.160Z,103153.34
2023-01-28T14:59:43.204Z,103159.97
2023-01-28T15:02:30.446Z,103166.44
2023-01-28T15:05:09.395Z,103171.56
2023-01-28T15:07:36.011Z,103176.25
2023-01-28T15:10:14.542Z,103182.56
2023-01-28T15:12:44.898Z,103172.81
2023-01-28T15:15:24.148Z,103173.50
2023-01-28T15:17:51.433Z,103182.56
2023-01-28T15:20:24.524Z,103198.25
2023-01-28T15:22:53.076Z,103198.81
2023-01-28T15:25:27.684Z,103198.72
2023-01-28T15:27:55.991Z,103213.28
2023-01-28T15:30:29.087Z,103210.41
2023-01-28T15:33:03.366Z,103209.59
2023-01-28T15:35:29.990Z,103209.59
2023-01-28T15:37:56.804Z,103197.81
2023-01-28T15:40:25.932Z,103202.34
2023-01-28T15:42:54.893Z,103196.16
2023-01-28T15:45:23.492Z,103186.84
2023-01-28T15:47:50.686Z,103188.91
2023-01-28T15:50:23.257Z,103181.47
2023-01-28T15:52:52.229Z,103180.94
2023-01-28T15:55:38.900Z,103192.44
2023-01-28T15:58:29.172Z,103210.28
2023-01-28T16:01:12.133Z,103209.59
2023-01-28T16:03:41.414Z,103208.63
2023-01-28T16:06:36.108Z,103205.91
2023-01-28T16:09:06.688Z,103219.50
2023-01-28T16:11:41.481Z,103216.06
2023-01-28T16:14:37.637Z,103207.41
2023-01-28T16:17:04.193Z,103197.81
2023-01-28T16:19:41.347Z,103207.41
2023-01-28T16:22:18.687Z,103211.09
2023-01-28T16:24:53.896Z,103206.84
2023-01-28T16:27:23.728Z,103209.59
2023-01-28T16:29:50.379Z,103210.28
2023-01-28T16:32:28.864Z,103208.38
2023-01-28T16:34:55.339Z,103205.75
2023-01-28T16:37:21.898Z,103210.97
2023-01-28T16:39:48.870Z,103212.06
2023-01-28T16:42:15.475Z,103214.81
2023-01-28T16:44:41.929Z,103213.16
2023-01-28T16:47:09.421Z,103215.06
2023-01-28T16:49:35.895Z,103203.81
2023-01-28T16:52:03.309Z,103203.00
2023-01-28T16:54:30.066Z,103201.09
2023-01-28T16:56:57.316Z,103207.25
2023-01-28T16:59:23.760Z,103208.22
2023-01-28T17:01:50.341Z,103210.81
2023-01-28T17:04:17.001Z,103216.03
2023-01-28T17:06:45.119Z,103214.13
2023-01-28T17:09:13.695Z,103219.34
2023-01-28T17:11:40.828Z,103211.50
2023-01-28T17:14:08.049Z,103214.25
2023-01-28T17:16:34.699Z,103212.59
2023-01-28T17:19:01.329Z,103206.56
2023-01-28T17:21:27.860Z,103191.88
2023-01-28T17:23:54.508Z,103200.53
2023-01-28T17:26:21.243Z,103193.81
2023-01-28T17:28:53.687Z,103197.38
2023-01-28T17:31:23.910Z,103204.66
2023-01-28T17:33:54.768Z,103201.34
2023-01-28T17:36:21.773Z,103202.19
2023-01-28T17:38:48.645Z,103207.66
2023-01-28T17:41:17.335Z,103213.81
2023-01-28T17:43:44.006Z,103214.78
2023-01-28T17:46:12.678Z,103209.56
2023-01-28T17:48:39.860Z,103218.34
2023-01-28T17:51:06.833Z,103219.31
2023-01-28T17:53:33.499Z,103221.09
2023-01-28T17:56:00.086Z,103233.56
2023-01-28T17:58:26.750Z,103237.13
2023-01-28T18:00:53.475Z,103245.75
2023-01-28T18:03:19.930Z,103249.31
2023-01-28T18:05:57.031Z,103243.28
2023-01-28T18:08:23.598Z,103245.91
2023-01-28T18:10:50.059Z,103246.03
2023-01-28T18:13:16.540Z,103247.13
2023-01-28T18:15:43.332Z,103248.31
2023-01-28T18:18:09.881Z,103251.88
2023-01-28T18:20:37.544Z,103258.06
2023-01-28T18:23:04.142Z,103265.19
2023-01-28T18:25:30.639Z,103262.44
2023-01-28T18:27:57.190Z,103266.97
2023-01-28T18:30:23.745Z,103273.69
2023-01-28T18:32:50.427Z,103278.91
2023-01-28T18:35:17.476Z,103284.13
2023-01-28T18:37:44.174Z,103274.50
2023-01-28T18:40:11.422Z,103286.72
2023-01-28T18:42:37.932Z,103285.06
2023-01-28T18:45:05.138Z,103282.47
2023-01-28T18:47:31.570Z,103283.16
2023-01-28T18:49:58.084Z,103281.38
2023-01-28T18:52:24.614Z,103278.91
2023-01-28T18:54:51.099Z,103278.91
2023-01-28T18:57:19.812Z,103285.06
2023-01-28T18:59:47.390Z,103281.63
2023-01-28T19:02:15.689Z,103284.13
2023-01-28T19:04:42.968Z,103282.47
2023-01-28T19:07:11.831Z,103287.69
2023-01-28T19:09:38.590Z,103269.44
2023-01-28T19:12:05.775Z,103260.78
2023-01-28T19:14:32.352Z,103277.25
2023-01-28T19:16:59.254Z,103277.25
2023-01-28T19:19:26.025Z,103280.00
2023-01-28T19:21:53.528Z,103276.56
2023-01-28T19:24:20.624Z,103273.94
2023-01-28T19:26:47.346Z,103282.72
2023-01-28T19:29:16.137Z,103273.41
2023-01-28T19:31:44.413Z,103277.09
2023-01-28T19:34:11.399Z,103275.31
2023-01-28T19:36:38.097Z,103272.84
2023-01-28T19:39:07.543Z,103278.75
2023-01-28T19:41:34.872Z,103271.91
2023-01-28T19:44:01.840Z,103265.03
2023-01-28T19:46:28.435Z,103265.03
2023-01-28T19:48:55.288Z,103265.03
2023-01-28T19:51:22.444Z,103260.78
2023-01-28T19:53:54.028Z,103249.41
2023-01-28T19:56:23.021Z,103250.34
2023-01-28T19:58:50.141Z,103252.97
2023-01-28T20:01:18.202Z,103247.06
2023-01-28T20:03:45.789Z,103244.44
2023-01-28T20:06:15.238Z,103258.44
2023-01-28T20:08:43.021Z,103252.53
2023-01-28T20:11:12.688Z,103261.03
2023-01-28T20:13:41.118Z,103262.00
2023-01-28T20:16:11.474Z,103262.81
2023-01-28T20:18:37.938Z,103262.94
2023-01-28T20:21:07.284Z,103257.72
2023-01-28T20:23:34.064Z,103252.66
2023-01-28T20:26:03.466Z,103245.66
2023-01-28T20:28:30.017Z,103238.81
2023-01-28T20:30:56.754Z,103244.84
2023-01-28T20:33:23.862Z,103249.22
2023-01-28T20:35:50.343Z,103247.56
2023-01-28T20:38:16.942Z,103242.34
2023-01-28T20:40:43.939Z,103237.41
2023-01-28T20:43:10.691Z,103242.63
2023-01-28T20:45:37.758Z,103239.31
2023-01-28T20:48:04.583Z,103236.00
2023-01-28T20:50:31.185Z,103231.63
2023-01-28T20:52:58.216Z,103236.00
2023-01-28T20:55:24.880Z,103233.53
2023-01-28T20:57:52.576Z,103233.66
2023-01-28T21:00:19.711Z,103236.28
2023-01-28T21:02:46.493Z,103224.19
2023-01-28T21:05:13.329Z,103231.19
2023-01-28T21:07:39.910Z,103229.41
2023-01-28T21:10:06.791Z,103220.91
2023-01-28T21:12:33.418Z,103235.56
2023-01-28T21:14:59.938Z,103236.41
2023-01-28T21:17:26.543Z,103230.25
2023-01-28T21:19:53.072Z,103240.66
2023-01-28T21:22:20.312Z,103243.25
2023-01-28T21:24:49.045Z,103239.84
2023-01-28T21:27:15.770Z,103242.31
2023-01-28T21:29:42.648Z,103242.31
2023-01-28T21:32:09.401Z,103242.31
2023-01-28T21:34:36.154Z,103252.72
2023-01-28T21:37:02.861Z,103244.78
2023-01-28T21:39:29.396Z,103248.22
2023-01-28T21:41:55.916Z,103248.22
2023-01-28T21:44:22.515Z,103241.22
2023-01-28T21:46:49.140Z,103241.22
2023-01-28T21:49:15.727Z,103240.28
2023-01-28T21:51:48.647Z,103249.72
2023-01-28T21:54:18.149Z,103243.69
2023-01-28T21:56:49.302Z,103231.50
2023-01-28T21:59:28.978Z,103232.31
2023-01-28T22:02:05.391Z,103234.09
2023-01-28T22:04:40.027Z,103248.78
2023-01-28T22:07:09.190Z,103247.97
2023-01-28T22:09:36.001Z,103255.63
2023-01-28T22:12:03.771Z,103248.78
2023-01-28T22:14:30.396Z,103254.81
2023-01-28T22:16:56.910Z,103252.34
2023-01-28T22:19:23.548Z,103243.56
2023-01-28T22:21:50.100Z,103243.56
2023-01-28T22:24:22.562Z,103237.66
2023-01-28T22:26:49.158Z,103231.63
2023-01-28T22:29:17.881Z,103225.47
2023-01-28T22:31:49.337Z,103218.47
2023-01-28T22:34:16.703Z,103219.31
2023-01-28T22:36:43.913Z,103211.34
2023-01-28T22:39:13.909Z,103203.53
2023-01-28T22:41:41.562Z,103202.59
2023-01-28T22:44:08.417Z,103199.03
2023-01-28T22:46:36.025Z,103190.25
2023-01-28T22:49:03.313Z,103193.56
2023-01-28T22:51:32.582Z,103196.03
2023-01-28T22:53:59.304Z,103190.00
2023-01-28T22:56:28.000Z,103192.47
2023-01-28T22:58:59.396Z,103183.84
2023-01-28T23:01:26.281Z,103178.63
2023-01-28T23:03:52.911Z,103181.91
2023-01-28T23:06:21.123Z,103185.34
2023-01-28T23:08:48.179Z,103187.00
2023-01-28T23:11:15.808Z,103189.75
2023-01-28T23:14:02.070Z,103187.81
2023-01-28T23:16:48.671Z,103186.88
2023-01-28T23:19:34.512Z,103182.63
2023-01-28T23:22:19.578Z,103176.44
2023-01-28T23:24:46.029Z,103176.31
2023-01-28T23:27:12.438Z,103178.78
2023-01-28T23:29:38.943Z,103183.19
2023-01-28T23:32:09.731Z,103180.44
2023-01-28T23:34:38.759Z,103175.22
2023-01-28T23:37:07.599Z,103177.00
2023-01-28T23:39:34.670Z,103174.41
2023-01-28T23:42:18.672Z,103176.88
2023-01-28T23:44:45.508Z,103170.84
2023-01-28T23:47:12.474Z,103166.47
2023-01-28T23:49:39.950Z,103157.66
2023-01-28T23:52:07.734Z,103156.03
2023-01-28T23:54:34.811Z,103168.06
2023-01-28T23:57:02.216Z,103159.44
2023-01-28T23:59:28.697Z,103170.56
